createdAt,value
2019-04-28T00:01:57.322Z,12.64
2019-04-28T00:04:25.529Z,12.60
2019-04-28T00:06:54.033Z,12.79
2019-04-28T00:09:23.165Z,12.84
2019-04-28T00:11:53.364Z,13.08
2019-04-28T00:14:22.123Z,13.38
2019-04-28T00:16:51.156Z,13.51
2019-04-28T00:19:20.948Z,13.35
2019-04-28T00:21:57.091Z,12.68
2019-04-28T00:24:43.186Z,12.41
2019-04-28T00:27:12.044Z,12.22
2019-04-28T00:29:45.677Z,11.81
2019-04-28T00:32:11.212Z,11.46
2019-04-28T00:34:41.272Z,11.17
2019-04-28T00:37:17.412Z,10.85
2019-04-28T00:39:45.608Z,10.56
2019-04-28T00:42:13.809Z,10.06
2019-04-28T00:44:43.401Z,9.73
2019-04-28T00:47:11.789Z,9.45
2019-04-28T00:49:48.985Z,9.07
2019-04-28T00:52:17.819Z,8.87
2019-04-28T00:54:46.554Z,8.67
2019-04-28T00:57:15.039Z,8.29
2019-04-28T00:59:54.018Z,7.98
2019-04-28T01:02:15.078Z,7.74
2019-04-28T01:04:43.262Z,7.56
2019-04-28T01:07:11.581Z,7.29
2019-04-28T01:09:41.497Z,7.01
2019-04-28T01:12:11.222Z,6.88
2019-04-28T01:14:40.979Z,6.55
2019-04-28T01:17:14.850Z,6.01
2019-04-28T01:19:49.629Z,5.81
2019-04-28T01:22:20.179Z,5.75
2019-04-28T01:24:49.725Z,5.70
2019-04-28T01:27:25.650Z,5.87
2019-04-28T01:30:05.361Z,5.89
2019-04-28T01:32:34.510Z,5.90
2019-04-28T01:35:02.778Z,5.83
2019-04-28T01:37:31.007Z,5.67
2019-04-28T01:39:59.761Z,5.65
2019-04-28T01:42:30.116Z,5.88
2019-04-28T01:44:58.157Z,6.05
2019-04-28T01:47:26.463Z,6.14
2019-04-28T01:49:54.660Z,6.40
2019-04-28T01:52:22.862Z,6.72
2019-04-28T01:54:51.057Z,6.89
2019-04-28T01:57:21.364Z,7.04
2019-04-28T01:59:50.159Z,7.06
2019-04-28T02:02:19.922Z,7.20
2019-04-28T02:04:49.892Z,7.33
2019-04-28T02:07:18.318Z,7.84
2019-04-28T02:09:46.516Z,7.78
2019-04-28T02:12:14.714Z,7.63
2019-04-28T02:14:42.912Z,7.44
2019-04-28T02:17:11.115Z,7.34
2019-04-28T02:19:41.065Z,7.13
2019-04-28T02:22:25.735Z,7.23
2019-04-28T02:24:55.007Z,7.35
2019-04-28T02:27:23.620Z,7.55
2019-04-28T02:29:51.817Z,7.61
2019-04-28T02:32:21.281Z,8.75
2019-04-28T02:34:50.812Z,10.40
2019-04-28T02:37:20.563Z,11.21
2019-04-28T02:39:50.560Z,11.44
2019-04-28T02:42:20.899Z,11.95
2019-04-28T02:44:50.405Z,13.42
2019-04-28T02:47:21.608Z,16.02
2019-04-28T02:50:00.845Z,19.75
2019-04-28T02:52:47.781Z,20.42
2019-04-28T02:55:15.953Z,18.68
2019-04-28T02:57:44.165Z,17.74
2019-04-28T03:00:12.366Z,16.77
2019-04-28T03:02:41.602Z,16.17
2019-04-28T03:05:11.610Z,16.14
2019-04-28T03:07:41.043Z,17.70
2019-04-28T03:10:11.108Z,20.02
2019-04-28T03:12:41.408Z,20.47
2019-04-28T03:15:10.406Z,20.01
2019-04-28T03:17:40.738Z,19.64
2019-04-28T03:20:10.960Z,20.14
2019-04-28T03:22:40.864Z,20.05
2019-04-28T03:25:10.929Z,19.62
2019-04-28T03:27:57.384Z,20.03
2019-04-28T03:30:35.892Z,21.20
2019-04-28T03:33:12.000Z,22.66
2019-04-28T03:35:35.665Z,25.17
2019-04-28T03:38:03.868Z,24.73
2019-04-28T03:40:33.803Z,25.26
2019-04-28T03:43:03.326Z,25.23
2019-04-28T03:45:42.177Z,25.95
2019-04-28T03:48:11.480Z,25.85
2019-04-28T03:50:41.431Z,25.58
2019-04-28T03:53:11.081Z,25.44
2019-04-28T03:55:41.683Z,25.31
2019-04-28T03:58:10.447Z,24.99
2019-04-28T04:00:40.814Z,26.15
2019-04-28T04:03:10.965Z,26.75
2019-04-28T04:05:40.624Z,27.13
2019-04-28T04:08:10.905Z,27.02
2019-04-28T04:10:43.760Z,26.29
2019-04-28T04:13:25.568Z,25.75
2019-04-28T04:15:55.406Z,25.65
2019-04-28T04:18:25.263Z,24.91
2019-04-28T04:20:53.783Z,23.94
2019-04-28T04:23:23.356Z,23.05
2019-04-28T04:25:51.770Z,22.45
2019-04-28T04:28:20.685Z,21.44
2019-04-28T04:30:50.755Z,19.50
2019-04-28T04:33:20.809Z,17.22
2019-04-28T04:35:51.727Z,15.60
2019-04-28T04:38:21.762Z,14.37
2019-04-28T04:40:51.276Z,13.21
2019-04-28T04:43:23.013Z,11.99
2019-04-28T04:45:51.000Z,10.94
2019-04-28T04:48:21.528Z,10.04
2019-04-28T04:50:51.027Z,9.34
2019-04-28T04:53:20.786Z,8.83
2019-04-28T04:55:50.535Z,8.60
2019-04-28T04:58:21.219Z,8.37
2019-04-28T05:00:53.161Z,8.18
2019-04-28T05:03:23.326Z,7.97
2019-04-28T05:05:51.532Z,8.05
2019-04-28T05:08:20.278Z,8.13
2019-04-28T05:10:50.427Z,8.23
2019-04-28T05:13:20.083Z,8.99
2019-04-28T05:15:48.426Z,9.48
2019-04-28T05:18:16.616Z,9.08
2019-04-28T05:20:44.819Z,9.15
2019-04-28T05:23:14.640Z,9.34
2019-04-28T05:25:44.016Z,11.29
2019-04-28T05:28:12.541Z,12.12
2019-04-28T05:30:42.972Z,12.07
2019-04-28T05:33:12.314Z,12.77
2019-04-28T05:35:40.513Z,22.95
2019-04-28T05:38:09.972Z,29.06
2019-04-28T05:40:39.878Z,32.71
2019-04-28T05:43:08.447Z,39.67
2019-04-28T05:45:36.646Z,46.13
2019-04-28T05:48:04.843Z,51.83
2019-04-28T05:50:34.687Z,68.26
2019-04-28T05:53:04.831Z,81.93
2019-04-28T05:55:34.688Z,92.75
2019-04-28T05:58:10.502Z,99.33
2019-04-28T06:00:52.592Z,99.38
2019-04-28T06:03:22.436Z,100.00
2019-04-28T06:05:51.001Z,100.00
2019-04-28T06:08:27.147Z,100.00
2019-04-28T06:10:55.355Z,100.00
2019-04-28T06:13:23.904Z,100.00
2019-04-28T06:15:52.118Z,100.00
2019-04-28T06:18:20.627Z,100.00
2019-04-28T06:20:49.823Z,100.00
2019-04-28T06:23:18.033Z,100.00
2019-04-28T06:25:46.253Z,100.00
2019-04-28T06:28:14.460Z,100.00
2019-04-28T06:30:42.681Z,100.00
2019-04-28T06:33:10.883Z,100.00
2019-04-28T06:35:39.414Z,100.00
2019-04-28T06:38:07.912Z,100.00
2019-04-28T06:40:36.113Z,100.00
2019-04-28T06:43:04.320Z,100.00
2019-04-28T06:45:32.828Z,100.00
2019-04-28T06:48:01.026Z,100.00
2019-04-28T06:50:29.235Z,100.00
2019-04-28T06:52:57.435Z,100.00
2019-04-28T06:55:25.929Z,99.65
2019-04-28T06:57:54.126Z,99.94
2019-04-28T07:00:22.340Z,98.18
2019-04-28T07:02:50.537Z,99.55
2019-04-28T07:05:18.750Z,98.77
2019-04-28T07:07:46.995Z,96.11
2019-04-28T07:10:15.160Z,97.77
2019-04-28T07:12:43.373Z,95.59
2019-04-28T07:15:11.584Z,96.83
2019-04-28T07:17:39.778Z,93.78
2019-04-28T07:20:09.637Z,95.80
2019-04-28T07:22:37.837Z,92.86
2019-04-28T07:25:06.305Z,93.03
2019-04-28T07:27:34.508Z,92.75
2019-04-28T07:30:03.423Z,95.35
2019-04-28T07:32:31.637Z,92.44
2019-04-28T07:35:00.179Z,93.99
2019-04-28T07:37:28.385Z,93.39
2019-04-28T07:39:56.967Z,89.55
2019-04-28T07:42:25.119Z,90.62
2019-04-28T07:44:54.955Z,89.10
2019-04-28T07:47:23.165Z,87.82
2019-04-28T07:49:51.370Z,83.49
2019-04-28T07:52:21.221Z,77.12
2019-04-28T07:54:49.795Z,81.78
2019-04-28T07:57:17.987Z,77.32
2019-04-28T07:59:46.536Z,74.61
2019-04-28T08:02:14.740Z,74.09
2019-04-28T08:04:42.956Z,70.90
2019-04-28T08:07:11.170Z,74.70
2019-04-28T08:09:39.384Z,77.21
2019-04-28T08:12:07.582Z,79.54
2019-04-28T08:14:35.790Z,82.27
2019-04-28T08:17:03.999Z,83.97
2019-04-28T08:19:32.210Z,87.44
2019-04-28T08:22:00.408Z,94.64
2019-04-28T08:24:28.859Z,98.46
2019-04-28T08:26:57.354Z,99.35
2019-04-28T08:29:25.555Z,100.00
2019-04-28T08:31:55.409Z,98.79
2019-04-28T08:34:23.620Z,99.27
2019-04-28T08:36:52.106Z,100.00
2019-04-28T08:39:23.064Z,99.30
2019-04-28T08:41:50.246Z,100.00
2019-04-28T08:44:18.776Z,88.11
2019-04-28T08:46:47.363Z,77.34
2019-04-28T08:49:15.558Z,74.83
2019-04-28T08:51:43.764Z,67.30
2019-04-28T08:54:12.001Z,58.32
2019-04-28T08:56:40.199Z,53.08
2019-04-28T08:59:08.425Z,49.78
2019-04-28T09:01:36.638Z,50.52
2019-04-28T09:04:15.145Z,53.80
2019-04-28T09:06:35.115Z,50.76
2019-04-28T09:09:04.960Z,54.64
2019-04-28T09:11:37.383Z,60.46
2019-04-28T09:14:05.558Z,64.62
2019-04-28T09:16:34.054Z,64.01
2019-04-28T09:19:02.255Z,64.39
2019-04-28T09:21:30.469Z,65.96
2019-04-28T09:23:58.674Z,67.82
2019-04-28T09:26:26.905Z,68.84
2019-04-28T09:28:55.122Z,69.72
2019-04-28T09:31:23.336Z,70.20
2019-04-28T09:33:51.875Z,71.24
2019-04-28T09:36:20.106Z,68.81
2019-04-28T09:38:48.377Z,66.22
2019-04-28T09:41:16.901Z,67.66
2019-04-28T09:43:52.424Z,64.45
2019-04-28T09:46:22.343Z,63.28
2019-04-28T09:48:50.663Z,65.17
2019-04-28T09:51:18.866Z,63.92
2019-04-28T09:53:47.087Z,59.54
2019-04-28T09:56:15.282Z,59.65
2019-04-28T09:58:43.944Z,59.59
2019-04-28T10:01:12.271Z,57.01
2019-04-28T10:03:40.487Z,50.91
2019-04-28T10:06:08.800Z,47.55
2019-04-28T10:08:37.017Z,43.31
2019-04-28T10:11:05.226Z,37.92
2019-04-28T10:13:33.806Z,34.82
2019-04-28T10:16:02.330Z,38.83
2019-04-28T10:18:30.625Z,44.53
2019-04-28T10:20:59.149Z,44.47
2019-04-28T10:23:27.731Z,41.68
2019-04-28T10:25:56.211Z,46.57
2019-04-28T10:28:24.691Z,41.37
2019-04-28T10:30:52.898Z,34.04
2019-04-28T10:33:21.448Z,33.08
2019-04-28T10:35:49.664Z,32.47
2019-04-28T10:38:18.205Z,38.11
2019-04-28T10:40:53.742Z,45.67
2019-04-28T10:43:21.973Z,45.47
2019-04-28T10:45:51.043Z,51.76
2019-04-28T10:48:19.609Z,55.51
2019-04-28T10:50:47.886Z,58.87
2019-04-28T10:53:16.108Z,69.52
2019-04-28T10:55:44.364Z,71.97
2019-04-28T10:58:12.582Z,78.95
2019-04-28T11:00:41.705Z,84.72
2019-04-28T11:03:10.287Z,90.60
2019-04-28T11:05:40.120Z,91.76
2019-04-28T11:08:10.040Z,92.97
2019-04-28T11:10:38.244Z,97.94
2019-04-28T11:13:06.526Z,99.32
2019-04-28T11:15:36.378Z,100.00
2019-04-28T11:18:05.638Z,100.00
2019-04-28T11:20:33.855Z,100.00
2019-04-28T11:23:02.068Z,100.00
2019-04-28T11:25:30.694Z,99.82
2019-04-28T11:27:58.920Z,99.95
2019-04-28T11:30:28.591Z,99.48
2019-04-28T11:33:01.359Z,98.73
2019-04-28T11:35:31.811Z,100.00
2019-04-28T11:38:00.094Z,99.69
2019-04-28T11:40:28.430Z,99.27
2019-04-28T11:42:56.940Z,94.96
2019-04-28T11:45:26.326Z,100.00
2019-04-28T11:47:54.809Z,95.31
2019-04-28T11:50:23.024Z,92.50
2019-04-28T11:52:51.255Z,92.93
2019-04-28T11:55:19.464Z,94.98
2019-04-28T11:57:47.659Z,97.23
2019-04-28T12:00:29.927Z,96.11
2019-04-28T12:02:58.134Z,93.11
2019-04-28T12:05:34.407Z,96.10
2019-04-28T12:08:44.760Z,100.00
2019-04-28T12:11:14.941Z,71.52
2019-04-28T12:14:01.194Z,90.90
2019-04-28T12:16:47.541Z,95.95
2019-04-28T12:19:17.391Z,93.14
2019-04-28T12:21:45.930Z,87.94
2019-04-28T12:24:14.211Z,83.13
2019-04-28T12:26:42.415Z,78.69
2019-04-28T12:29:10.969Z,75.03
2019-04-28T12:31:39.442Z,74.39
2019-04-28T12:34:08.024Z,72.19
2019-04-28T12:36:36.222Z,69.21
2019-04-28T12:39:07.188Z,67.92
2019-04-28T12:41:35.388Z,69.72
2019-04-28T12:44:03.605Z,71.09
2019-04-28T12:46:32.067Z,69.05
2019-04-28T12:49:02.207Z,70.52
2019-04-28T12:51:30.775Z,69.16
2019-04-28T12:54:00.627Z,67.46
2019-04-28T12:56:28.835Z,67.44
2019-04-28T12:58:58.673Z,64.55
2019-04-28T13:01:43.809Z,62.46
2019-04-28T13:04:26.143Z,65.71
2019-04-28T13:07:04.968Z,62.39
2019-04-28T13:09:33.552Z,62.98
2019-04-28T13:12:01.759Z,62.81
2019-04-28T13:14:30.068Z,60.46
2019-04-28T13:16:58.802Z,63.00
2019-04-28T13:19:27.384Z,60.95
2019-04-28T13:21:55.578Z,62.90
2019-04-28T13:24:23.790Z,62.55
2019-04-28T13:26:52.423Z,62.06
2019-04-28T13:29:20.888Z,61.28
2019-04-28T13:31:49.092Z,59.85
2019-04-28T13:34:19.305Z,60.86
2019-04-28T13:36:47.484Z,58.95
2019-04-28T13:39:17.324Z,60.08
2019-04-28T13:41:45.532Z,59.48
2019-04-28T13:44:15.385Z,60.55
2019-04-28T13:46:43.594Z,60.57
2019-04-28T13:49:13.667Z,59.67
2019-04-28T13:51:44.893Z,59.97
2019-04-28T13:54:14.715Z,59.99
2019-04-28T13:56:42.974Z,60.46
2019-04-28T13:59:12.767Z,60.46
2019-04-28T14:01:54.769Z,60.80
2019-04-28T14:04:30.694Z,60.41
2019-04-28T14:06:59.088Z,60.48
2019-04-28T14:09:25.077Z,60.07
2019-04-28T14:11:50.791Z,59.47
2019-04-28T14:14:16.552Z,58.96
2019-04-28T14:16:42.366Z,59.16
2019-04-28T14:19:08.407Z,58.93
2019-04-28T14:21:34.358Z,59.24
2019-04-28T14:24:00.079Z,58.24
2019-04-28T14:26:25.846Z,57.68
2019-04-28T14:28:51.620Z,58.06
2019-04-28T14:31:17.727Z,58.33
2019-04-28T14:33:43.491Z,57.87
2019-04-28T14:36:09.374Z,58.30
2019-04-28T14:38:35.167Z,57.53
2019-04-28T14:41:00.977Z,56.59
2019-04-28T14:43:27.012Z,57.52
2019-04-28T14:45:52.844Z,57.03
2019-04-28T14:48:18.677Z,56.08
2019-04-28T14:50:44.389Z,56.89
2019-04-28T14:53:10.304Z,58.44
2019-04-28T14:55:36.432Z,56.52
2019-04-28T14:58:02.197Z,57.05
2019-04-28T15:00:30.195Z,57.11
2019-04-28T15:03:00.651Z,57.17
2019-04-28T15:05:28.364Z,56.60
2019-04-28T15:08:05.049Z,56.48
2019-04-28T15:10:32.776Z,56.50
2019-04-28T15:12:58.981Z,56.50
2019-04-28T15:15:24.964Z,55.20
2019-04-28T15:17:50.884Z,54.09
2019-04-28T15:20:16.669Z,53.53
2019-04-28T15:22:42.432Z,53.43
2019-04-28T15:25:08.189Z,52.52
2019-04-28T15:27:33.981Z,51.81
2019-04-28T15:30:11.040Z,50.82
2019-04-28T15:32:37.725Z,50.79
2019-04-28T15:35:04.495Z,52.50
2019-04-28T15:37:30.269Z,52.22
2019-04-28T15:39:56.030Z,51.95
2019-04-28T15:42:22.077Z,52.86
2019-04-28T15:44:47.853Z,53.01
2019-04-28T15:47:13.917Z,53.01
2019-04-28T15:49:39.675Z,52.46
2019-04-28T15:52:05.436Z,53.66
2019-04-28T15:54:31.188Z,53.24
2019-04-28T15:56:56.957Z,54.16
2019-04-28T15:59:23.006Z,53.98
2019-04-28T16:01:48.782Z,55.38
2019-04-28T16:04:18.009Z,54.78
2019-04-28T16:06:42.542Z,53.87
2019-04-28T16:09:10.483Z,53.87
2019-04-28T16:11:36.604Z,54.14
2019-04-28T16:14:02.365Z,54.29
2019-04-28T16:16:28.189Z,53.82
2019-04-28T16:18:54.267Z,53.89
2019-04-28T16:21:20.034Z,53.71
2019-04-28T16:23:46.061Z,53.18
2019-04-28T16:26:11.865Z,52.96
2019-04-28T16:28:37.625Z,53.28
2019-04-28T16:31:03.881Z,53.25
2019-04-28T16:33:29.992Z,53.12
2019-04-28T16:35:55.786Z,53.46
2019-04-28T16:38:23.639Z,53.46
2019-04-28T16:40:49.607Z,52.37
2019-04-28T16:43:15.724Z,52.55
2019-04-28T16:45:41.498Z,53.62
2019-04-28T16:48:07.569Z,53.62
2019-04-28T16:50:33.349Z,52.51
2019-04-28T16:52:59.117Z,52.51
2019-04-28T16:55:35.991Z,52.18
2019-04-28T16:58:20.405Z,52.14
2019-04-28T17:00:48.406Z,52.14
2019-04-28T17:03:14.266Z,52.07
2019-04-28T17:05:40.028Z,52.65
2019-04-28T17:08:05.817Z,53.91
2019-04-28T17:10:31.884Z,53.41
2019-04-28T17:12:58.011Z,53.11
2019-04-28T17:15:23.793Z,53.32
2019-04-28T17:17:49.857Z,53.32
2019-04-28T17:20:15.664Z,52.50
2019-04-28T17:22:41.472Z,52.50
2019-04-28T17:25:07.233Z,53.70
2019-04-28T17:27:33.345Z,53.70
2019-04-28T17:29:59.131Z,53.55
2019-04-28T17:32:24.952Z,53.55
2019-04-28T17:34:50.995Z,53.16
